createdAt,value
2022-07-26T00:01:23.773Z,100319.94
2022-07-26T00:03:56.344Z,100314.78
2022-07-26T00:06:26.675Z,100312.84
2022-07-26T00:08:54.619Z,100318.88
2022-07-26T00:11:22.961Z,100305.28
2022-07-26T00:13:51.598Z,100309.63
2022-07-26T00:16:20.935Z,100314.28
2022-07-26T00:18:49.321Z,100314.31
2022-07-26T00:22:21.355Z,100314.63
2022-07-26T00:24:50.768Z,100320.63
2022-07-26T00:27:20.161Z,100313.00
2022-07-26T00:29:48.132Z,100317.09
2022-07-26T00:32:18.423Z,100316.81
2022-07-26T00:34:46.174Z,100322.78
2022-07-26T00:37:18.355Z,100311.13
2022-07-26T00:39:48.215Z,100319.00
2022-07-26T00:42:16.478Z,100311.13
2022-07-26T00:44:46.522Z,100317.69
2022-07-26T00:47:14.689Z,100319.25
2022-07-26T00:49:46.002Z,100316.31
2022-07-26T00:52:15.133Z,100313.03
2022-07-26T00:55:44.367Z,100316.31
2022-07-26T00:58:13.488Z,100320.63
2022-07-26T01:00:41.460Z,100309.78
2022-07-26T01:03:09.531Z,100314.66
2022-07-26T01:05:39.038Z,100314.91
2022-07-26T01:08:07.797Z,100318.97
2022-07-26T01:10:37.197Z,100313.53
2022-07-26T01:13:06.031Z,100309.75
2022-07-26T01:15:34.038Z,100317.88
2022-07-26T01:18:02.124Z,100310.53
2022-07-26T01:20:30.061Z,100314.06
2022-07-26T01:22:59.141Z,100318.91
2022-07-26T01:25:31.662Z,100321.88
2022-07-26T01:27:59.724Z,100311.63
2022-07-26T01:30:27.964Z,100302.66
2022-07-26T01:32:56.903Z,100311.59
2022-07-26T01:35:24.729Z,100307.53
2022-07-26T01:37:59.993Z,100310.78
2022-07-26T01:40:27.820Z,100297.81
2022-07-26T01:42:55.790Z,100311.34
2022-07-26T01:45:24.752Z,100309.16
2022-07-26T01:47:53.365Z,100316.75
2022-07-26T01:50:21.449Z,100312.69
2022-07-26T01:52:49.277Z,100313.50
2022-07-26T01:55:18.585Z,100311.38
2022-07-26T01:57:47.391Z,100310.25
2022-07-26T02:00:16.771Z,100317.31
2022-07-26T02:02:45.227Z,100312.72
2022-07-26T02:05:15.266Z,100315.69
2022-07-26T02:07:44.702Z,100319.50
2022-07-26T02:10:13.495Z,100313.78
2022-07-26T02:12:45.034Z,100323.28
2022-07-26T02:15:15.000Z,100317.03
2022-07-26T02:17:44.558Z,100316.19
2022-07-26T02:20:13.151Z,100322.72
2022-07-26T02:22:40.947Z,100331.38
2022-07-26T02:25:10.249Z,100324.31
2022-07-26T02:27:38.336Z,100320.84
2022-07-26T02:30:08.423Z,100319.47
2022-07-26T02:32:36.105Z,100317.84
2022-07-26T02:35:06.376Z,100326.25
2022-07-26T02:37:42.465Z,100323.81
2022-07-26T02:40:17.052Z,100323.00
2022-07-26T02:42:48.660Z,100328.16
2022-07-26T02:45:17.940Z,100331.41
2022-07-26T02:47:49.772Z,100333.59
2022-07-26T02:50:18.836Z,100339.25
2022-07-26T02:52:48.105Z,100334.41
2022-07-26T02:55:16.120Z,100333.59
2022-07-26T02:57:46.497Z,100336.53
2022-07-26T03:00:18.317Z,100335.75
2022-07-26T03:02:47.747Z,100340.34
2022-07-26T03:05:15.556Z,100350.06
2022-07-26T03:07:43.826Z,100339.50
2022-07-26T03:10:12.629Z,100346.00
2022-07-26T03:12:40.495Z,100344.41
2022-07-26T03:15:09.192Z,100338.97
2022-07-26T03:17:38.447Z,100347.66
2022-07-26T03:20:08.016Z,100348.72
2022-07-26T03:22:37.738Z,100361.19
2022-07-26T03:25:06.695Z,100357.97
2022-07-26T03:31:16.080Z,100351.44
2022-07-26T03:33:45.125Z,100353.59
2022-07-26T03:36:15.735Z,100353.03
2022-07-26T03:38:44.454Z,100361.72
2022-07-26T03:41:13.391Z,100365.25
2022-07-26T03:43:42.247Z,100364.44
2022-07-26T03:46:10.225Z,100373.66
2022-07-26T03:48:39.017Z,100366.31
2022-07-26T03:51:08.748Z,100369.81
2022-07-26T03:53:36.426Z,100364.66
2022-07-26T03:56:21.642Z,100368.44
2022-07-26T03:58:50.176Z,100367.63
2022-07-26T04:01:18.386Z,100369.78
2022-07-26T04:03:47.843Z,100374.13
2022-07-26T04:06:17.958Z,100368.19
2022-07-26T04:08:46.534Z,100370.31
2022-07-26T04:11:15.005Z,100371.44
2022-07-26T04:13:44.527Z,100375.75
2022-07-26T04:16:14.543Z,100381.75
2022-07-26T04:18:42.839Z,100391.47
2022-07-26T04:21:11.569Z,100382.28
2022-07-26T04:23:40.891Z,100392.34
2022-07-26T04:26:08.736Z,100393.19
2022-07-26T04:28:36.501Z,100386.66
2022-07-26T04:31:04.529Z,100387.75
2022-07-26T04:33:33.040Z,100380.06
2022-07-26T04:36:01.215Z,100387.38
2022-07-26T04:38:29.142Z,100394.41
2022-07-26T04:40:58.961Z,100401.16
2022-07-26T04:43:26.889Z,100398.69
2022-07-26T04:45:54.856Z,100393.00
2022-07-26T04:48:23.372Z,100398.94
2022-07-26T04:50:51.249Z,100394.59
2022-07-26T04:53:19.229Z,100384.03
2022-07-26T04:55:47.814Z,100384.84
2022-07-26T04:58:17.167Z,100393.00
2022-07-26T05:03:36.667Z,100386.53
2022-07-26T05:06:04.647Z,100399.03
2022-07-26T05:08:33.404Z,100391.19
2022-07-26T05:11:01.258Z,100391.47
2022-07-26T05:13:31.215Z,100386.13
2022-07-26T05:16:01.716Z,100389.97
2022-07-26T05:18:43.953Z,100395.66
2022-07-26T05:21:14.172Z,100403.28
2022-07-26T05:23:42.766Z,100401.41
2022-07-26T05:26:12.063Z,100407.38
2022-07-26T05:32:22.682Z,100422.09
2022-07-26T05:34:51.643Z,100416.69
2022-07-26T05:37:20.203Z,100409.63
2022-07-26T05:39:49.505Z,100417.25
2022-07-26T05:42:18.908Z,100412.34
2022-07-26T05:44:47.502Z,100412.94
2022-07-26T05:47:15.321Z,100413.44
2022-07-26T05:49:48.030Z,100414.03
2022-07-26T05:52:15.909Z,100427.03
2022-07-26T05:54:44.548Z,100422.72
2022-07-26T05:57:13.083Z,100433.56
2022-07-26T05:59:41.327Z,100432.47
2022-07-26T06:02:09.530Z,100436.28
2022-07-26T06:04:39.030Z,100424.88
2022-07-26T06:07:10.496Z,100425.94
2022-07-26T06:09:38.532Z,100437.88
2022-07-26T06:12:07.280Z,100435.72
2022-07-26T06:14:34.920Z,100446.28
2022-07-26T06:17:04.438Z,100446.28
2022-07-26T06:19:32.381Z,100443.06
2022-07-26T06:22:00.261Z,100447.91
2022-07-26T06:24:29.794Z,100453.06
2022-07-26T06:27:04.733Z,100462.91
2022-07-26T06:29:33.195Z,100451.47
2022-07-26T06:32:00.898Z,100458.00
2022-07-26T06:34:28.505Z,100460.16
2022-07-26T06:36:56.141Z,100458.41
2022-07-26T06:39:23.764Z,100455.66
2022-07-26T06:41:52.849Z,100458.13
2022-07-26T06:44:20.397Z,100467.19
2022-07-26T06:46:48.130Z,100472.13
2022-07-26T06:49:19.400Z,100470.22
2022-07-26T06:51:49.586Z,100461.75
2022-07-26T06:54:17.235Z,100476.47
2022-07-26T06:56:44.857Z,100461.22
2022-07-26T06:59:13.730Z,100470.47
2022-07-26T07:01:51.665Z,100466.66
2022-07-26T07:04:27.509Z,100464.47
2022-07-26T07:06:55.293Z,100465.56
2022-07-26T07:09:25.510Z,100465.91
2022-07-26T07:11:58.608Z,100466.78
2022-07-26T07:14:29.266Z,100469.34
2022-07-26T07:16:57.386Z,100467.06
2022-07-26T07:19:25.711Z,100479.00
2022-07-26T07:21:53.380Z,100471.16
2022-07-26T07:24:21.436Z,100483.72
2022-07-26T07:26:50.172Z,100473.03
2022-07-26T07:29:20.159Z,100479.41
2022-07-26T07:31:50.198Z,100477.16
2022-07-26T07:34:22.510Z,100486.53
2022-07-26T07:36:51.521Z,100478.28
2022-07-26T07:39:19.526Z,100471.03
2022-07-26T07:41:47.740Z,100479.25
2022-07-26T07:44:15.687Z,100488.34
2022-07-26T07:46:44.146Z,100483.75
2022-07-26T07:49:13.543Z,100486.50
2022-07-26T07:51:41.287Z,100485.63
2022-07-26T07:54:10.099Z,100488.69
2022-07-26T07:56:37.737Z,100478.31
2022-07-26T07:59:07.264Z,100483.31
2022-07-26T08:01:40.636Z,100483.66
2022-07-26T08:04:09.283Z,100480.47
2022-07-26T08:06:41.337Z,100484.63
2022-07-26T08:09:10.492Z,100489.25
2022-07-26T08:12:45.587Z,100492.63
2022-07-26T08:15:13.591Z,100495.31
2022-07-26T08:17:42.601Z,100511.00
2022-07-26T08:20:15.832Z,100519.91
2022-07-26T08:22:45.338Z,100526.34
2022-07-26T08:25:13.245Z,100535.03
2022-07-26T08:27:42.157Z,100547.13
2022-07-26T08:30:11.993Z,100548.09
2022-07-26T08:32:39.876Z,100544.69
2022-07-26T08:35:17.406Z,100544.69
2022-07-26T08:37:48.973Z,100540.94
2022-07-26T08:40:16.883Z,100539.91
2022-07-26T08:42:52.562Z,100548.44
2022-07-26T08:45:24.091Z,100544.06
2022-07-26T08:48:16.247Z,64645.06
2022-07-26T08:50:42.337Z,100557.00
2022-07-26T08:53:13.147Z,100565.28
2022-07-26T09:02:12.861Z,64645.06
2022-07-26T09:04:44.618Z,64645.06
2022-07-26T09:07:15.639Z,64645.06
2022-07-26T09:10:00.575Z,64645.06
2022-07-26T09:12:30.749Z,64645.06
2022-07-26T09:15:00.005Z,100593.69
2022-07-26T09:17:40.674Z,64645.06
2022-07-26T09:20:10.540Z,64645.06
2022-07-26T09:22:40.122Z,100598.69
2022-07-26T09:25:21.770Z,100600.22
2022-07-26T09:27:50.038Z,100605.50
2022-07-26T09:30:19.104Z,100609.88
2022-07-26T09:33:01.259Z,100600.63
2022-07-26T09:35:50.885Z,100600.50
2022-07-26T09:38:19.208Z,100605.06
2022-07-26T09:40:51.019Z,100610.88
2022-07-26T09:43:24.350Z,100605.69
2022-07-26T09:46:05.749Z,100618.22
2022-07-26T09:49:08.026Z,100627.06
2022-07-26T09:51:38.567Z,100637.00
2022-07-26T09:54:06.928Z,100650.69
2022-07-26T09:56:48.298Z,100645.47
2022-07-26T09:59:17.268Z,100649.38
2022-07-26T10:01:45.433Z,100659.03
2022-07-26T10:04:13.983Z,100664.00
2022-07-26T10:06:43.590Z,100653.03
2022-07-26T10:09:12.559Z,100664.31
2022-07-26T10:11:44.193Z,100668.47
2022-07-26T10:14:42.854Z,100669.00
2022-07-26T10:17:49.283Z,100666.09
2022-07-26T10:20:46.613Z,100671.94
2022-07-26T10:23:39.875Z,100666.53
2022-07-26T10:26:10.174Z,100679.78
2022-07-26T10:28:41.571Z,100675.75
2022-07-26T10:31:31.161Z,100692.72
2022-07-26T10:34:01.927Z,100685.66
2022-07-26T10:36:32.775Z,100689.69
2022-07-26T10:39:10.927Z,100692.44
2022-07-26T10:41:44.729Z,100698.25
2022-07-26T10:44:20.996Z,100701.94
2022-07-26T10:47:05.984Z,100702.19
2022-07-26T10:49:36.203Z,100705.94
2022-07-26T10:52:13.200Z,100710.84
2022-07-26T10:55:09.425Z,100707.34
2022-07-26T10:57:39.441Z,100711.69
2022-07-26T11:00:28.138Z,100703.50
2022-07-26T11:02:59.993Z,100704.69
2022-07-26T11:05:31.296Z,100707.81
2022-07-26T11:08:18.486Z,100706.16
2022-07-26T11:10:47.641Z,100704.31
2022-07-26T11:13:18.051Z,100700.84
2022-07-26T11:15:48.052Z,100701.63
2022-07-26T11:18:32.745Z,100700.38
2022-07-26T11:21:10.090Z,100705.97
2022-07-26T11:23:41.668Z,100703.66
2022-07-26T11:26:15.663Z,100705.50
2022-07-26T11:29:06.375Z,100700.09
2022-07-26T11:31:50.329Z,100710.88
2022-07-26T11:34:26.645Z,100718.00
2022-07-26T11:36:55.967Z,100713.53
2022-07-26T11:39:26.501Z,100719.09
2022-07-26T11:41:59.328Z,100726.63
2022-07-26T11:44:27.376Z,100718.97
2022-07-26T11:46:57.918Z,100728.63
2022-07-26T11:49:51.845Z,100729.16
2022-07-26T11:52:24.918Z,100724.31
2022-07-26T11:54:54.556Z,100719.28
2022-07-26T11:57:29.264Z,100730.38
2022-07-26T11:59:57.485Z,100720.13
2022-07-26T12:02:26.402Z,100727.09
2022-07-26T12:05:20.109Z,100726.38
2022-07-26T12:07:56.977Z,100723.66
2022-07-26T12:10:26.132Z,100726.47
2022-07-26T12:13:08.597Z,100729.53
2022-07-26T12:15:45.942Z,100741.69
2022-07-26T12:18:23.448Z,100740.41
2022-07-26T12:21:08.973Z,100767.22
2022-07-26T12:23:44.784Z,100764.31
2022-07-26T12:26:24.358Z,100757.28
2022-07-26T12:28:54.264Z,100751.63
2022-07-26T12:31:26.363Z,100751.72
2022-07-26T12:33:55.054Z,100749.25
2022-07-26T12:36:29.779Z,100751.84
2022-07-26T12:39:00.071Z,100745.00
2022-07-26T12:41:37.119Z,100754.13
2022-07-26T12:44:06.284Z,100742.94
2022-07-26T12:47:38.486Z,100744.56
2022-07-26T12:50:07.567Z,100751.81
2022-07-26T12:52:37.073Z,100743.19
2022-07-26T12:55:07.135Z,100750.63
2022-07-26T12:57:36.851Z,100742.19
2022-07-26T13:00:06.239Z,100750.38
2022-07-26T13:02:34.010Z,100739.94
2022-07-26T13:05:04.683Z,100743.31
2022-07-26T13:07:33.503Z,100744.44
2022-07-26T13:12:51.357Z,100738.31
2022-07-26T13:15:19.212Z,100733.41
2022-07-26T13:17:47.967Z,100745.84
2022-07-26T13:20:17.151Z,100750.19
2022-07-26T13:22:45.962Z,100734.91
2022-07-26T13:25:18.960Z,100742.34
2022-07-26T13:27:48.783Z,100737.44
2022-07-26T13:30:16.636Z,100742.38
2022-07-26T13:32:46.438Z,100746.13
2022-07-26T13:35:14.988Z,100738.00
2022-07-26T13:37:42.759Z,100739.63
2022-07-26T13:40:14.262Z,100738.97
2022-07-26T13:42:50.017Z,100736.75
2022-07-26T13:45:18.124Z,100732.91
2022-07-26T13:47:46.229Z,100741.13
2022-07-26T13:50:13.868Z,100736.72
2022-07-26T13:52:41.932Z,100737.97
2022-07-26T13:55:10.383Z,100752.19
2022-07-26T13:57:47.129Z,100767.59
2022-07-26T14:00:25.342Z,100761.06
2022-07-26T14:02:53.750Z,100747.94
2022-07-26T14:05:21.686Z,100770.91
2022-07-26T14:07:50.397Z,100749.59
2022-07-26T14:10:18.342Z,100761.59
2022-07-26T14:12:46.654Z,100762.75
2022-07-26T14:15:23.868Z,100763.09
2022-07-26T14:18:53.534Z,100767.31
2022-07-26T14:21:47.429Z,100769.53
2022-07-26T14:25:29.017Z,100771.19
2022-07-26T14:27:57.516Z,100783.41
2022-07-26T14:30:27.505Z,100781.63
2022-07-26T14:33:56.910Z,100772.66
2022-07-26T14:36:24.881Z,100785.00
2022-07-26T14:38:55.649Z,100772.53
2022-07-26T14:41:23.753Z,100781.75
2022-07-26T14:43:55.477Z,100783.44
2022-07-26T14:46:23.894Z,100782.97
2022-07-26T14:48:54.797Z,100780.72
2022-07-26T14:51:23.057Z,100784.59
2022-07-26T14:53:54.295Z,100794.00
2022-07-26T14:56:22.807Z,100779.88
2022-07-26T14:58:50.803Z,100791.66
2022-07-26T15:01:18.743Z,100790.88
2022-07-26T15:03:47.215Z,100789.78
2022-07-26T15:06:16.112Z,100787.78
2022-07-26T15:08:44.993Z,100785.16
2022-07-26T15:11:15.881Z,100797.41
2022-07-26T15:13:44.752Z,100790.75
2022-07-26T15:16:14.169Z,100790.91
2022-07-26T15:18:42.151Z,100796.56
2022-07-26T15:21:10.155Z,100787.47
2022-07-26T15:23:39.997Z,100786.13
2022-07-26T15:26:08.124Z,100791.31
2022-07-26T15:28:38.525Z,100791.16
2022-07-26T15:31:06.726Z,100788.81
2022-07-26T15:33:35.389Z,100793.97
2022-07-26T15:36:05.893Z,100805.16
2022-07-26T15:38:34.974Z,100791.59
2022-07-26T15:41:03.372Z,100797.34
2022-07-26T15:43:48.275Z,100797.72
2022-07-26T15:46:18.113Z,100794.81
2022-07-26T15:48:47.473Z,100788.53
2022-07-26T15:51:16.352Z,100787.25
2022-07-26T15:53:46.726Z,100782.84
2022-07-26T15:56:14.810Z,100796.13
2022-07-26T15:58:43.464Z,100797.31
2022-07-26T16:01:12.887Z,100791.91
2022-07-26T16:03:46.424Z,100784.38
2022-07-26T16:06:15.396Z,100791.47
2022-07-26T16:09:05.787Z,100794.41
2022-07-26T16:12:36.380Z,100795.84
2022-07-26T16:15:04.649Z,100812.31
2022-07-26T16:17:32.683Z,100804.22
2022-07-26T16:20:06.344Z,100817.94
2022-07-26T16:22:34.814Z,100806.47
2022-07-26T16:25:02.941Z,100801.63
2022-07-26T16:27:30.683Z,100812.00
2022-07-26T16:29:59.348Z,100814.72
2022-07-26T16:32:27.314Z,100811.19
2022-07-26T16:34:55.876Z,100804.06
2022-07-26T16:37:25.460Z,100801.06
2022-07-26T16:39:55.809Z,100813.00
2022-07-26T16:42:24.056Z,100800.09
2022-07-26T16:44:54.077Z,100805.91
2022-07-26T16:47:21.892Z,100806.25
2022-07-26T16:49:49.959Z,100798.25
2022-07-26T16:52:18.416Z,100801.44
2022-07-26T16:54:47.750Z,100796.72
2022-07-26T16:57:16.151Z,100799.47
2022-07-26T16:59:44.727Z,100806.56
2022-07-26T17:03:15.782Z,100796.75
2022-07-26T17:05:44.620Z,100806.94
2022-07-26T17:08:12.637Z,100795.06
2022-07-26T17:10:42.345Z,100808.03
2022-07-26T17:13:10.791Z,100803.78
2022-07-26T17:15:40.265Z,100803.38
2022-07-26T17:18:08.719Z,100809.22
2022-07-26T17:20:37.094Z,100802.69
2022-07-26T17:23:05.775Z,100812.31
2022-07-26T17:25:34.121Z,100803.13
2022-07-26T17:28:07.592Z,100792.78
2022-07-26T17:30:36.081Z,100808.22
2022-07-26T17:33:04.031Z,100809.56
2022-07-26T17:35:32.130Z,100803.38
2022-07-26T17:38:00.072Z,100817.19
2022-07-26T17:40:29.383Z,100817.88
2022-07-26T17:42:57.638Z,100821.63
2022-07-26T17:45:27.415Z,100823.22
2022-07-26T17:47:56.728Z,100823.50
2022-07-26T17:50:39.827Z,100823.19
2022-07-26T17:53:08.383Z,100841.28
2022-07-26T17:55:38.321Z,100827.09
2022-07-26T17:58:06.501Z,100830.56
2022-07-26T18:00:37.957Z,100829.91
2022-07-26T18:03:06.311Z,100824.47
2022-07-26T18:05:41.108Z,100837.41
2022-07-26T18:08:10.800Z,100832.34
2022-07-26T18:10:40.011Z,100819.94
2022-07-26T18:13:07.894Z,100829.66
2022-07-26T18:15:38.355Z,100836.09
2022-07-26T18:18:07.773Z,100834.00
2022-07-26T18:24:17.677Z,100833.56
2022-07-26T18:26:45.721Z,100824.94
2022-07-26T18:29:15.164Z,100838.88
2022-07-26T18:31:44.679Z,100824.91
2022-07-26T18:34:12.730Z,100824.63
2022-07-26T18:36:42.004Z,100833.34
2022-07-26T18:39:10.479Z,100821.47
2022-07-26T18:42:40.662Z,100822.22
2022-07-26T18:45:09.435Z,100819.75
2022-07-26T18:47:42.600Z,100819.00
2022-07-26T18:50:25.836Z,100822.28
2022-07-26T18:52:54.599Z,100837.25
2022-07-26T18:55:22.274Z,100824.06
2022-07-26T18:57:50.365Z,100827.59
2022-07-26T19:01:19.657Z,100829.88
2022-07-26T19:03:50.717Z,100823.72
2022-07-26T19:06:18.554Z,100833.34
2022-07-26T19:08:47.061Z,100827.75
2022-07-26T19:11:14.974Z,100838.91
2022-07-26T19:13:43.629Z,100839.81
2022-07-26T19:16:12.113Z,100837.09
2022-07-26T19:18:40.011Z,100841.38
2022-07-26T19:21:09.387Z,100844.00
2022-07-26T19:23:40.098Z,100847.44
2022-07-26T19:26:08.511Z,100849.22
2022-07-26T19:28:36.469Z,100858.28
2022-07-26T19:31:04.582Z,100860.56
2022-07-26T19:33:35.543Z,100867.59
2022-07-26T19:36:03.323Z,100873.34
2022-07-26T19:38:34.440Z,100880.22
2022-07-26T19:41:02.632Z,100870.88
2022-07-26T19:43:30.335Z,100880.84
2022-07-26T19:45:59.836Z,100877.38
2022-07-26T19:48:28.704Z,100882.56
2022-07-26T19:50:58.287Z,100874.66
2022-07-26T19:53:27.045Z,100887.44
2022-07-26T19:55:58.875Z,100891.41
2022-07-26T19:58:29.160Z,100892.06
2022-07-26T20:00:57.196Z,100893.88
2022-07-26T20:03:25.087Z,100899.66
2022-07-26T20:05:55.721Z,100907.22
2022-07-26T20:08:24.666Z,100905.00
2022-07-26T20:10:53.285Z,100905.16
2022-07-26T20:13:22.321Z,100905.31
2022-07-26T20:15:50.304Z,100903.16
2022-07-26T20:18:22.153Z,100908.41
2022-07-26T20:20:49.935Z,100912.44
2022-07-26T20:23:17.644Z,100921.66
2022-07-26T20:25:46.031Z,100908.09
2022-07-26T20:28:14.241Z,100915.78
2022-07-26T20:30:51.751Z,100917.91
2022-07-26T20:33:19.763Z,100919.88
2022-07-26T20:35:54.435Z,100918.41
2022-07-26T20:38:24.192Z,100920.53
2022-07-26T20:40:53.096Z,100932.22
2022-07-26T20:43:22.320Z,100921.38
2022-07-26T20:45:53.436Z,100933.75
2022-07-26T20:48:21.627Z,100925.19
2022-07-26T20:50:49.418Z,100927.88
2022-07-26T20:53:17.999Z,100934.91
2022-07-26T20:55:45.911Z,100935.16
2022-07-26T20:58:13.852Z,100940.72
2022-07-26T21:00:42.137Z,100943.44
2022-07-26T21:03:13.697Z,100945.44
2022-07-26T21:05:41.646Z,100943.44
2022-07-26T21:08:09.418Z,100953.53
2022-07-26T21:10:38.205Z,100942.72
2022-07-26T21:13:06.066Z,100946.41
2022-07-26T21:15:33.657Z,100958.59
2022-07-26T21:18:03.404Z,100943.84
2022-07-26T21:21:33.131Z,100955.25
2022-07-26T21:24:07.005Z,100942.72
2022-07-26T21:26:35.178Z,100953.16
2022-07-26T21:29:04.746Z,100957.66
2022-07-26T21:31:32.526Z,100952.94
2022-07-26T21:34:00.498Z,100951.53
2022-07-26T21:36:28.738Z,100961.88
2022-07-26T21:38:56.756Z,100960.72
2022-07-26T21:41:29.150Z,100959.66
2022-07-26T21:43:57.786Z,100974.09
2022-07-26T21:46:25.609Z,100976.78
2022-07-26T21:48:53.615Z,100974.34
2022-07-26T21:51:21.593Z,100975.72
2022-07-26T21:53:49.789Z,100977.03
2022-07-26T21:57:19.883Z,100980.41
2022-07-26T21:59:50.171Z,100985.59
2022-07-26T22:02:20.058Z,100980.78
2022-07-26T22:04:49.503Z,100981.81
2022-07-26T22:07:17.177Z,100979.38
2022-07-26T22:09:45.939Z,100982.41
2022-07-26T22:12:19.644Z,100989.09
2022-07-26T22:14:47.352Z,100988.25
2022-07-26T22:17:16.547Z,100991.66
2022-07-26T22:19:44.714Z,100982.75
2022-07-26T22:22:14.924Z,100986.16
2022-07-26T22:24:43.384Z,100998.47
2022-07-26T22:27:11.402Z,100995.19
2022-07-26T22:29:40.304Z,100994.25
2022-07-26T22:32:08.232Z,100986.28
2022-07-26T22:34:37.452Z,100991.22
2022-07-26T22:37:05.492Z,101003.41
2022-07-26T22:39:33.471Z,100985.31
2022-07-26T22:42:16.523Z,100987.47
2022-07-26T22:44:44.425Z,100994.69
2022-07-26T22:47:12.275Z,100993.53
2022-07-26T22:49:41.408Z,100986.84
2022-07-26T22:52:09.809Z,100999.63
2022-07-26T22:54:37.639Z,100996.81
2022-07-26T22:57:05.628Z,100982.75
2022-07-26T22:59:37.077Z,100991.16
2022-07-26T23:02:05.539Z,100993.50
2022-07-26T23:04:33.223Z,100983.75
2022-07-26T23:07:03.780Z,100987.25
2022-07-26T23:09:32.742Z,100990.59
2022-07-26T23:12:00.465Z,100987.22
2022-07-26T23:14:28.452Z,100995.47
2022-07-26T23:17:57.418Z,100977.81
2022-07-26T23:20:25.505Z,100994.63
2022-07-26T23:22:54.564Z,100988.19
2022-07-26T23:25:23.531Z,100997.16
2022-07-26T23:27:53.362Z,100991.78
2022-07-26T23:30:21.467Z,100993.13
2022-07-26T23:32:49.249Z,100984.38
2022-07-26T23:35:17.217Z,100986.84
2022-07-26T23:37:45.275Z,100989.84
2022-07-26T23:40:14.755Z,100997.66
2022-07-26T23:42:43.168Z,100981.34
2022-07-26T23:45:11.503Z,100985.84
2022-07-26T23:47:41.223Z,100985.78
2022-07-26T23:50:10.196Z,100980.06
2022-07-26T23:52:38.638Z,100985.59
2022-07-26T23:56:08.012Z,100993.03
2022-07-26T23:58:38.278Z,100984.94
